sensor_id;sensor_type;location;lat;lon;timestamp;temperature;humidity
4306;DHT22;2166;49.926;8.608;2022-09-12T00:00:20;13.90;82.30
4306;DHT22;2166;49.926;8.608;2022-09-12T00:02:50;13.80;82.30
4306;DHT22;2166;49.926;8.608;2022-09-12T00:05:20;13.80;82.30
4306;DHT22;2166;49.926;8.608;2022-09-12T00:07:47;13.80;82.30
4306;DHT22;2166;49.926;8.608;2022-09-12T00:10:15;13.80;82.30
4306;DHT22;2166;49.926;8.608;2022-09-12T00:12:44;13.80;82.30
4306;DHT22;2166;49.926;8.608;2022-09-12T00:15:12;13.80;82.30
4306;DHT22;2166;49.926;8.608;2022-09-12T00:17:40;13.80;82.40
4306;DHT22;2166;49.926;8.608;2022-09-12T00:20:08;13.80;82.40
4306;DHT22;2166;49.926;8.608;2022-09-12T00:22:37;13.80;82.40
4306;DHT22;2166;49.926;8.608;2022-09-12T00:25:05;13.70;82.30
4306;DHT22;2166;49.926;8.608;2022-09-12T00:27:33;13.70;82.30
4306;DHT22;2166;49.926;8.608;2022-09-12T00:30:01;13.60;82.20
4306;DHT22;2166;49.926;8.608;2022-09-12T00:32:29;13.60;82.30
4306;DHT22;2166;49.926;8.608;2022-09-12T00:34:57;13.50;82.20
4306;DHT22;2166;49.926;8.608;2022-09-12T00:37:25;13.50;82.30
4306;DHT22;2166;49.926;8.608;2022-09-12T00:39:54;13.50;82.40
4306;DHT22;2166;49.926;8.608;2022-09-12T00:42:22;13.50;82.60
4306;DHT22;2166;49.926;8.608;2022-09-12T00:44:51;13.50;82.40
4306;DHT22;2166;49.926;8.608;2022-09-12T00:47:20;13.50;82.70
4306;DHT22;2166;49.926;8.608;2022-09-12T00:49:50;13.50;82.70
4306;DHT22;2166;49.926;8.608;2022-09-12T00:52:19;13.50;82.60
4306;DHT22;2166;49.926;8.608;2022-09-12T00:54:49;13.50;82.40
4306;DHT22;2166;49.926;8.608;2022-09-12T00:57:20;13.40;82.40
4306;DHT22;2166;49.926;8.608;2022-09-12T00:59:49;13.40;82.40
4306;DHT22;2166;49.926;8.608;2022-09-12T01:02:18;13.30;82.40
4306;DHT22;2166;49.926;8.608;2022-09-12T01:04:46;13.20;82.60
4306;DHT22;2166;49.926;8.608;2022-09-12T01:07:14;13.20;82.70
4306;DHT22;2166;49.926;8.608;2022-09-12T01:09:43;13.20;82.70
4306;DHT22;2166;49.926;8.608;2022-09-12T01:12:12;13.10;82.60
4306;DHT22;2166;49.926;8.608;2022-09-12T01:14:42;13.10;82.70
4306;DHT22;2166;49.926;8.608;2022-09-12T01:17:11;13.10;82.70
4306;DHT22;2166;49.926;8.608;2022-09-12T01:19:59;13.10;82.70
4306;DHT22;2166;49.926;8.608;2022-09-12T01:22:35;13.10;82.70
4306;DHT22;2166;49.926;8.608;2022-09-12T01:25:08;13.10;82.70
4306;DHT22;2166;49.926;8.608;2022-09-12T01:27:43;13.10;82.80
4306;DHT22;2166;49.926;8.608;2022-09-12T01:30:25;13.10;82.80
4306;DHT22;2166;49.926;8.608;2022-09-12T01:32:58;13.10;82.90
4306;DHT22;2166;49.926;8.608;2022-09-12T01:35:30;13.20;82.90
4306;DHT22;2166;49.926;8.608;2022-09-12T01:38:02;13.20;82.80
4306;DHT22;2166;49.926;8.608;2022-09-12T01:40:38;13.20;82.80
4306;DHT22;2166;49.926;8.608;2022-09-12T01:43:11;13.00;82.70
4306;DHT22;2166;49.926;8.608;2022-09-12T01:45:46;13.00;82.80
4306;DHT22;2166;49.926;8.608;2022-09-12T01:48:18;13.00;83.00
4306;DHT22;2166;49.926;8.608;2022-09-12T01:50:49;13.00;83.00
4306;DHT22;2166;49.926;8.608;2022-09-12T01:53:18;13.10;83.00
4306;DHT22;2166;49.926;8.608;2022-09-12T01:55:47;13.00;82.70
4306;DHT22;2166;49.926;8.608;2022-09-12T01:58:17;13.00;82.80
4306;DHT22;2166;49.926;8.608;2022-09-12T02:00:49;13.00;82.70
4306;DHT22;2166;49.926;8.608;2022-09-12T02:03:19;12.90;82.70
4306;DHT22;2166;49.926;8.608;2022-09-12T02:05:51;12.90;82.70
4306;DHT22;2166;49.926;8.608;2022-09-12T02:08:21;12.90;82.80
4306;DHT22;2166;49.926;8.608;2022-09-12T02:10:52;12.90;83.00
4306;DHT22;2166;49.926;8.608;2022-09-12T02:13:23;12.80;82.90
4306;DHT22;2166;49.926;8.608;2022-09-12T02:15:55;12.70;83.00
4306;DHT22;2166;49.926;8.608;2022-09-12T02:18:25;12.80;83.00
4306;DHT22;2166;49.926;8.608;2022-09-12T02:20:55;12.80;83.00
4306;DHT22;2166;49.926;8.608;2022-09-12T02:23:25;12.70;83.00
4306;DHT22;2166;49.926;8.608;2022-09-12T02:25:55;12.70;82.80
4306;DHT22;2166;49.926;8.608;2022-09-12T02:28:25;12.70;82.90
4306;DHT22;2166;49.926;8.608;2022-09-12T02:30:58;12.60;82.90
4306;DHT22;2166;49.926;8.608;2022-09-12T02:33:29;12.60;82.90
4306;DHT22;2166;49.926;8.608;2022-09-12T02:36:01;12.60;82.90
4306;DHT22;2166;49.926;8.608;2022-09-12T02:38:32;12.60;83.00
4306;DHT22;2166;49.926;8.608;2022-09-12T02:41:03;12.60;83.00
4306;DHT22;2166;49.926;8.608;2022-09-12T02:43:31;12.60;82.90
4306;DHT22;2166;49.926;8.608;2022-09-12T02:46:00;12.60;82.90
4306;DHT22;2166;49.926;8.608;2022-09-12T02:48:29;12.50;82.90
4306;DHT22;2166;49.926;8.608;2022-09-12T02:50:58;12.50;82.90
4306;DHT22;2166;49.926;8.608;2022-09-12T02:53:27;12.50;82.90
4306;DHT22;2166;49.926;8.608;2022-09-12T02:55:55;12.40;82.90
4306;DHT22;2166;49.926;8.608;2022-09-12T02:58:24;12.30;82.90
4306;DHT22;2166;49.926;8.608;2022-09-12T03:00:54;12.20;82.90
4306;DHT22;2166;49.926;8.608;2022-09-12T03:03:31;12.20;83.00
4306;DHT22;2166;49.926;8.608;2022-09-12T03:06:08;12.20;83.20
4306;DHT22;2166;49.926;8.608;2022-09-12T03:08:50;12.20;83.20
4306;DHT22;2166;49.926;8.608;2022-09-12T03:14:14;12.30;83.40
4306;DHT22;2166;49.926;8.608;2022-09-12T03:16:48;12.20;83.30
4306;DHT22;2166;49.926;8.608;2022-09-12T03:19:22;12.20;83.30
4306;DHT22;2166;49.926;8.608;2022-09-12T03:21:53;12.20;83.20
4306;DHT22;2166;49.926;8.608;2022-09-12T03:24:25;12.10;83.10
4306;DHT22;2166;49.926;8.608;2022-09-12T03:26:58;12.20;83.10
4306;DHT22;2166;49.926;8.608;2022-09-12T03:29:27;12.20;83.20
4306;DHT22;2166;49.926;8.608;2022-09-12T03:31:56;12.10;83.20
4306;DHT22;2166;49.926;8.608;2022-09-12T03:34:26;12.10;83.30
4306;DHT22;2166;49.926;8.608;2022-09-12T03:36:54;12.10;83.30
4306;DHT22;2166;49.926;8.608;2022-09-12T03:39:22;12.10;83.40
4306;DHT22;2166;49.926;8.608;2022-09-12T03:41:51;12.10;83.40
4306;DHT22;2166;49.926;8.608;2022-09-12T03:44:19;12.10;83.50
4306;DHT22;2166;49.926;8.608;2022-09-12T03:46:47;12.10;83.40
4306;DHT22;2166;49.926;8.608;2022-09-12T03:49:15;12.00;83.30
4306;DHT22;2166;49.926;8.608;2022-09-12T03:51:44;12.00;83.40
4306;DHT22;2166;49.926;8.608;2022-09-12T03:54:12;12.00;83.50
4306;DHT22;2166;49.926;8.608;2022-09-12T03:56:40;12.00;83.50
4306;DHT22;2166;49.926;8.608;2022-09-12T03:59:08;11.90;83.50
4306;DHT22;2166;49.926;8.608;2022-09-12T04:01:36;11.90;83.50
4306;DHT22;2166;49.926;8.608;2022-09-12T04:04:04;12.00;83.40
4306;DHT22;2166;49.926;8.608;2022-09-12T04:06:32;12.00;83.60
4306;DHT22;2166;49.926;8.608;2022-09-12T04:09:01;12.10;83.60
4306;DHT22;2166;49.926;8.608;2022-09-12T04:11:29;12.10;83.60
4306;DHT22;2166;49.926;8.608;2022-09-12T04:13:57;12.10;83.70
4306;DHT22;2166;49.926;8.608;2022-09-12T04:16:25;12.20;83.60
4306;DHT22;2166;49.926;8.608;2022-09-12T04:18:53;12.20;83.60
4306;DHT22;2166;49.926;8.608;2022-09-12T04:21:21;12.20;83.60
4306;DHT22;2166;49.926;8.608;2022-09-12T04:23:49;12.20;83.60
4306;DHT22;2166;49.926;8.608;2022-09-12T04:26:18;12.20;83.60
4306;DHT22;2166;49.926;8.608;2022-09-12T04:28:47;12.20;83.50
4306;DHT22;2166;49.926;8.608;2022-09-12T04:31:15;12.20;83.60
4306;DHT22;2166;49.926;8.608;2022-09-12T04:33:46;12.20;83.60
4306;DHT22;2166;49.926;8.608;2022-09-12T04:36:14;12.20;83.60
4306;DHT22;2166;49.926;8.608;2022-09-12T04:38:42;12.20;83.50
4306;DHT22;2166;49.926;8.608;2022-09-12T04:41:11;12.20;83.50
4306;DHT22;2166;49.926;8.608;2022-09-12T04:43:41;12.20;83.40
4306;DHT22;2166;49.926;8.608;2022-09-12T04:46:09;12.20;83.40
4306;DHT22;2166;49.926;8.608;2022-09-12T04:48:38;12.10;83.40
4306;DHT22;2166;49.926;8.608;2022-09-12T04:51:06;12.10;83.40
4306;DHT22;2166;49.926;8.608;2022-09-12T04:53:35;12.10;83.40
4306;DHT22;2166;49.926;8.608;2022-09-12T04:56:04;12.10;83.40
4306;DHT22;2166;49.926;8.608;2022-09-12T04:58:32;12.20;83.50
4306;DHT22;2166;49.926;8.608;2022-09-12T05:01:06;12.20;83.40
4306;DHT22;2166;49.926;8.608;2022-09-12T05:03:34;12.20;83.50
4306;DHT22;2166;49.926;8.608;2022-09-12T05:06:05;12.20;83.50
4306;DHT22;2166;49.926;8.608;2022-09-12T05:08:33;12.20;83.60
4306;DHT22;2166;49.926;8.608;2022-09-12T05:11:02;12.20;83.60
4306;DHT22;2166;49.926;8.608;2022-09-12T05:13:30;12.20;83.60
4306;DHT22;2166;49.926;8.608;2022-09-12T05:15:59;12.30;83.80
4306;DHT22;2166;49.926;8.608;2022-09-12T05:18:29;12.40;83.40
4306;DHT22;2166;49.926;8.608;2022-09-12T05:20:58;12.50;83.30
4306;DHT22;2166;49.926;8.608;2022-09-12T05:23:26;12.60;83.40
4306;DHT22;2166;49.926;8.608;2022-09-12T05:25:54;12.80;83.40
4306;DHT22;2166;49.926;8.608;2022-09-12T05:28:23;12.90;83.20
4306;DHT22;2166;49.926;8.608;2022-09-12T05:30:58;13.10;83.20
4306;DHT22;2166;49.926;8.608;2022-09-12T05:33:26;13.20;83.20
4306;DHT22;2166;49.926;8.608;2022-09-12T05:35:55;13.50;83.30
4306;DHT22;2166;49.926;8.608;2022-09-12T05:38:23;13.70;83.30
4306;DHT22;2166;49.926;8.608;2022-09-12T05:40:53;13.90;83.10
4306;DHT22;2166;49.926;8.608;2022-09-12T05:43:21;14.00;82.90
4306;DHT22;2166;49.926;8.608;2022-09-12T05:45:49;14.30;82.90
4306;DHT22;2166;49.926;8.608;2022-09-12T05:48:17;14.50;82.40
4306;DHT22;2166;49.926;8.608;2022-09-12T05:50:45;14.80;82.00
4306;DHT22;2166;49.926;8.608;2022-09-12T05:53:14;15.10;81.30
4306;DHT22;2166;49.926;8.608;2022-09-12T05:55:42;15.40;80.70
4306;DHT22;2166;49.926;8.608;2022-09-12T05:58:10;15.70;80.00
4306;DHT22;2166;49.926;8.608;2022-09-12T06:00:38;16.00;79.70
4306;DHT22;2166;49.926;8.608;2022-09-12T06:03:06;16.40;78.60
4306;DHT22;2166;49.926;8.608;2022-09-12T06:05:34;16.80;77.90
4306;DHT22;2166;49.926;8.608;2022-09-12T06:08:02;17.20;76.40
4306;DHT22;2166;49.926;8.608;2022-09-12T06:10:32;17.60;76.10
4306;DHT22;2166;49.926;8.608;2022-09-12T06:13:00;18.10;74.90
4306;DHT22;2166;49.926;8.608;2022-09-12T06:15:29;18.50;74.00
4306;DHT22;2166;49.926;8.608;2022-09-12T06:17:57;19.00;72.50
4306;DHT22;2166;49.926;8.608;2022-09-12T06:20:25;19.50;71.90
4306;DHT22;2166;49.926;8.608;2022-09-12T06:22:53;19.70;71.40
4306;DHT22;2166;49.926;8.608;2022-09-12T06:25:21;19.80;70.90
4306;DHT22;2166;49.926;8.608;2022-09-12T06:27:50;19.90;70.80
4306;DHT22;2166;49.926;8.608;2022-09-12T06:30:18;20.00;70.30
4306;DHT22;2166;49.926;8.608;2022-09-12T06:32:51;20.20;70.30
4306;DHT22;2166;49.926;8.608;2022-09-12T06:35:19;20.80;69.10
4306;DHT22;2166;49.926;8.608;2022-09-12T06:37:47;21.00;69.70
4306;DHT22;2166;49.926;8.608;2022-09-12T06:40:15;21.20;69.00
4306;DHT22;2166;49.926;8.608;2022-09-12T06:42:43;21.50;68.60
4306;DHT22;2166;49.926;8.608;2022-09-12T06:45:20;21.30;68.60
4306;DHT22;2166;49.926;8.608;2022-09-12T06:47:48;21.90;68.80
4306;DHT22;2166;49.926;8.608;2022-09-12T06:50:16;22.10;68.20
4306;DHT22;2166;49.926;8.608;2022-09-12T06:52:44;22.50;67.30
4306;DHT22;2166;49.926;8.608;2022-09-12T06:55:15;22.80;67.20
4306;DHT22;2166;49.926;8.608;2022-09-12T06:57:48;23.40;66.80
4306;DHT22;2166;49.926;8.608;2022-09-12T07:00:16;23.40;65.30
4306;DHT22;2166;49.926;8.608;2022-09-12T07:02:45;22.90;65.30
4306;DHT22;2166;49.926;8.608;2022-09-12T07:05:13;22.50;66.50
4306;DHT22;2166;49.926;8.608;2022-09-12T07:07:41;22.70;66.40
4306;DHT22;2166;49.926;8.608;2022-09-12T07:10:09;23.00;65.40
4306;DHT22;2166;49.926;8.608;2022-09-12T07:12:38;23.10;65.00
4306;DHT22;2166;49.926;8.608;2022-09-12T07:15:06;23.00;65.90
4306;DHT22;2166;49.926;8.608;2022-09-12T07:17:34;23.80;64.60
4306;DHT22;2166;49.926;8.608;2022-09-12T07:20:04;24.20;63.50
4306;DHT22;2166;49.926;8.608;2022-09-12T07:22:33;24.70;63.40
4306;DHT22;2166;49.926;8.608;2022-09-12T07:25:01;25.90;61.50
4306;DHT22;2166;49.926;8.608;2022-09-12T07:27:29;27.10;58.90
4306;DHT22;2166;49.926;8.608;2022-09-12T07:29:56;27.90;56.10
4306;DHT22;2166;49.926;8.608;2022-09-12T07:32:25;27.60;57.20
4306;DHT22;2166;49.926;8.608;2022-09-12T07:34:54;26.90;57.50
4306;DHT22;2166;49.926;8.608;2022-09-12T07:37:23;26.10;59.60
4306;DHT22;2166;49.926;8.608;2022-09-12T07:39:51;25.50;61.10
4306;DHT22;2166;49.926;8.608;2022-09-12T07:42:19;25.20;62.50
4306;DHT22;2166;49.926;8.608;2022-09-12T07:44:47;25.40;62.30
4306;DHT22;2166;49.926;8.608;2022-09-12T07:47:15;25.70;61.60
4306;DHT22;2166;49.926;8.608;2022-09-12T07:49:43;26.20;62.20
4306;DHT22;2166;49.926;8.608;2022-09-12T07:52:11;27.00;60.00
4306;DHT22;2166;49.926;8.608;2022-09-12T07:54:41;27.60;58.30
4306;DHT22;2166;49.926;8.608;2022-09-12T07:57:08;28.20;57.70
4306;DHT22;2166;49.926;8.608;2022-09-12T07:59:37;29.10;55.10
4306;DHT22;2166;49.926;8.608;2022-09-12T08:02:18;29.10;55.30
4306;DHT22;2166;49.926;8.608;2022-09-12T08:04:46;29.40;54.00
4306;DHT22;2166;49.926;8.608;2022-09-12T08:07:14;29.80;52.80
4306;DHT22;2166;49.926;8.608;2022-09-12T08:09:45;29.80;52.30
4306;DHT22;2166;49.926;8.608;2022-09-12T08:12:13;29.20;54.10
4306;DHT22;2166;49.926;8.608;2022-09-12T08:14:42;29.10;54.70
4306;DHT22;2166;49.926;8.608;2022-09-12T08:17:09;29.20;53.50
4306;DHT22;2166;49.926;8.608;2022-09-12T08:19:37;29.30;53.20
4306;DHT22;2166;49.926;8.608;2022-09-12T08:22:05;28.90;53.10
4306;DHT22;2166;49.926;8.608;2022-09-12T08:24:33;28.70;55.20
4306;DHT22;2166;49.926;8.608;2022-09-12T08:27:03;28.60;54.60
4306;DHT22;2166;49.926;8.608;2022-09-12T08:29:31;28.70;54.40
4306;DHT22;2166;49.926;8.608;2022-09-12T08:31:58;28.80;53.60
4306;DHT22;2166;49.926;8.608;2022-09-12T08:34:26;28.30;54.10
4306;DHT22;2166;49.926;8.608;2022-09-12T08:36:54;28.20;55.20
4306;DHT22;2166;49.926;8.608;2022-09-12T08:39:23;27.90;55.70
4306;DHT22;2166;49.926;8.608;2022-09-12T08:41:55;28.00;55.20
4306;DHT22;2166;49.926;8.608;2022-09-12T08:44:29;28.20;54.50
4306;DHT22;2166;49.926;8.608;2022-09-12T08:49:46;28.40;54.30
4306;DHT22;2166;49.926;8.608;2022-09-12T08:52:17;28.60;54.10
4306;DHT22;2166;49.926;8.608;2022-09-12T08:54:46;28.90;53.50
4306;DHT22;2166;49.926;8.608;2022-09-12T08:57:15;29.80;52.30
4306;DHT22;2166;49.926;8.608;2022-09-12T08:59:45;30.30;51.00
4306;DHT22;2166;49.926;8.608;2022-09-12T09:02:20;30.90;49.80
4306;DHT22;2166;49.926;8.608;2022-09-12T09:04:51;30.80;49.30
4306;DHT22;2166;49.926;8.608;2022-09-12T09:07:24;31.00;49.30
4306;DHT22;2166;49.926;8.608;2022-09-12T09:09:59;31.70;48.30
4306;DHT22;2166;49.926;8.608;2022-09-12T09:12:32;32.50;46.60
4306;DHT22;2166;49.926;8.608;2022-09-12T09:15:16;33.70;45.50
4306;DHT22;2166;49.926;8.608;2022-09-12T09:17:48;35.30;43.40
4306;DHT22;2166;49.926;8.608;2022-09-12T09:20:21;36.80;41.50
4306;DHT22;2166;49.926;8.608;2022-09-12T09:22:52;38.00;38.80
4306;DHT22;2166;49.926;8.608;2022-09-12T09:25:22;37.10;39.20
4306;DHT22;2166;49.926;8.608;2022-09-12T09:27:53;36.80;39.90
4306;DHT22;2166;49.926;8.608;2022-09-12T09:30:25;36.90;39.80
4306;DHT22;2166;49.926;8.608;2022-09-12T09:32:54;37.50;39.20
4306;DHT22;2166;49.926;8.608;2022-09-12T09:35:26;37.80;38.90
4306;DHT22;2166;49.926;8.608;2022-09-12T09:38:04;38.20;38.40
4306;DHT22;2166;49.926;8.608;2022-09-12T09:40:36;38.50;37.30
4306;DHT22;2166;49.926;8.608;2022-09-12T09:43:09;38.60;37.30
4306;DHT22;2166;49.926;8.608;2022-09-12T09:45:41;39.10;36.80
4306;DHT22;2166;49.926;8.608;2022-09-12T09:48:15;38.60;37.20
4306;DHT22;2166;49.926;8.608;2022-09-12T09:50:45;39.00;36.60
4306;DHT22;2166;49.926;8.608;2022-09-12T09:53:23;38.70;36.50
4306;DHT22;2166;49.926;8.608;2022-09-12T09:55:52;38.40;36.40
4306;DHT22;2166;49.926;8.608;2022-09-12T09:58:28;37.70;36.60
4306;DHT22;2166;49.926;8.608;2022-09-12T10:01:01;36.60;37.90
4306;DHT22;2166;49.926;8.608;2022-09-12T10:03:33;35.90;38.30
4306;DHT22;2166;49.926;8.608;2022-09-12T10:06:03;35.60;39.10
4306;DHT22;2166;49.926;8.608;2022-09-12T10:08:32;36.00;38.70
4306;DHT22;2166;49.926;8.608;2022-09-12T10:11:02;36.70;36.70
4306;DHT22;2166;49.926;8.608;2022-09-12T10:13:32;36.80;36.60
4306;DHT22;2166;49.926;8.608;2022-09-12T10:16:03;35.90;36.80
4306;DHT22;2166;49.926;8.608;2022-09-12T10:18:32;36.00;37.80
4306;DHT22;2166;49.926;8.608;2022-09-12T10:21:00;36.00;36.20
4306;DHT22;2166;49.926;8.608;2022-09-12T10:23:31;35.50;37.50
4306;DHT22;2166;49.926;8.608;2022-09-12T10:26:02;35.80;38.60
4306;DHT22;2166;49.926;8.608;2022-09-12T10:28:32;35.70;36.80
4306;DHT22;2166;49.926;8.608;2022-09-12T10:31:03;35.30;38.00
4306;DHT22;2166;49.926;8.608;2022-09-12T10:33:32;35.00;39.10
4306;DHT22;2166;49.926;8.608;2022-09-12T10:36:03;35.60;38.00
4306;DHT22;2166;49.926;8.608;2022-09-12T10:38:31;36.60;37.70
4306;DHT22;2166;49.926;8.608;2022-09-12T10:41:00;37.60;35.10
4306;DHT22;2166;49.926;8.608;2022-09-12T10:43:29;38.40;35.50
4306;DHT22;2166;49.926;8.608;2022-09-12T10:48:46;40.40;33.00
4306;DHT22;2166;49.926;8.608;2022-09-12T10:51:24;40.90;32.30
4306;DHT22;2166;49.926;8.608;2022-09-12T10:53:53;41.30;31.90
4306;DHT22;2166;49.926;8.608;2022-09-12T10:56:22;42.30;31.20
4306;DHT22;2166;49.926;8.608;2022-09-12T10:58:54;42.50;30.90
4306;DHT22;2166;49.926;8.608;2022-09-12T11:01:29;41.10;31.40
4306;DHT22;2166;49.926;8.608;2022-09-12T11:04:13;40.70;32.50
4306;DHT22;2166;49.926;8.608;2022-09-12T11:06:47;40.70;32.50
4306;DHT22;2166;49.926;8.608;2022-09-12T11:09:19;40.30;32.70
4306;DHT22;2166;49.926;8.608;2022-09-12T11:11:52;40.40;33.00
4306;DHT22;2166;49.926;8.608;2022-09-12T11:14:34;39.40;34.00
4306;DHT22;2166;49.926;8.608;2022-09-12T11:17:08;39.70;33.40
4306;DHT22;2166;49.926;8.608;2022-09-12T11:19:43;40.70;32.80
4306;DHT22;2166;49.926;8.608;2022-09-12T11:22:18;40.70;32.80
4306;DHT22;2166;49.926;8.608;2022-09-12T11:24:57;41.00;32.10
4306;DHT22;2166;49.926;8.608;2022-09-12T11:27:32;42.00;31.30
4306;DHT22;2166;49.926;8.608;2022-09-12T11:30:07;43.10;30.80
4306;DHT22;2166;49.926;8.608;2022-09-12T11:32:42;44.00;29.70
4306;DHT22;2166;49.926;8.608;2022-09-12T11:35:17;43.40;30.10
4306;DHT22;2166;49.926;8.608;2022-09-12T11:37:51;42.30;30.80
4306;DHT22;2166;49.926;8.608;2022-09-12T11:40:24;40.90;31.80
4306;DHT22;2166;49.926;8.608;2022-09-12T11:42:55;39.80;32.80
4306;DHT22;2166;49.926;8.608;2022-09-12T11:45:26;38.80;34.50
4306;DHT22;2166;49.926;8.608;2022-09-12T11:47:56;37.90;35.60
4306;DHT22;2166;49.926;8.608;2022-09-12T11:50:27;38.10;35.90
4306;DHT22;2166;49.926;8.608;2022-09-12T11:52:56;37.90;35.60
4306;DHT22;2166;49.926;8.608;2022-09-12T11:55:28;39.20;34.10
4306;DHT22;2166;49.926;8.608;2022-09-12T11:57:59;40.30;33.50
4306;DHT22;2166;49.926;8.608;2022-09-12T12:00:27;41.30;32.00
4306;DHT22;2166;49.926;8.608;2022-09-12T12:03:00;40.80;32.80
4306;DHT22;2166;49.926;8.608;2022-09-12T12:05:33;40.10;33.30
4306;DHT22;2166;49.926;8.608;2022-09-12T12:08:03;40.20;33.80
4306;DHT22;2166;49.926;8.608;2022-09-12T12:10:32;40.60;33.10
4306;DHT22;2166;49.926;8.608;2022-09-12T12:13:02;41.80;32.20
4306;DHT22;2166;49.926;8.608;2022-09-12T12:15:31;43.00;31.10
4306;DHT22;2166;49.926;8.608;2022-09-12T12:18:02;43.60;30.50
4306;DHT22;2166;49.926;8.608;2022-09-12T12:20:32;44.10;29.80
4306;DHT22;2166;49.926;8.608;2022-09-12T12:23:01;44.90;29.20
4306;DHT22;2166;49.926;8.608;2022-09-12T12:25:40;45.10;28.60
4306;DHT22;2166;49.926;8.608;2022-09-12T12:28:08;43.30;30.10
4306;DHT22;2166;49.926;8.608;2022-09-12T12:36:27;41.00;32.90
4306;DHT22;2166;49.926;8.608;2022-09-12T12:38:55;41.60;31.50
4306;DHT22;2166;49.926;8.608;2022-09-12T12:41:43;42.60;31.00
4306;DHT22;2166;49.926;8.608;2022-09-12T12:47:07;43.70;30.00
4306;DHT22;2166;49.926;8.608;2022-09-12T12:49:36;44.40;29.70
4306;DHT22;2166;49.926;8.608;2022-09-12T12:52:13;45.00;29.30
4306;DHT22;2166;49.926;8.608;2022-09-12T12:57:23;45.20;29.10
4306;DHT22;2166;49.926;8.608;2022-09-12T12:59:53;44.90;29.00
4306;DHT22;2166;49.926;8.608;2022-09-12T13:02:24;45.40;28.30
4306;DHT22;2166;49.926;8.608;2022-09-12T13:04:53;45.60;28.10
4306;DHT22;2166;49.926;8.608;2022-09-12T13:07:28;45.50;28.10
4306;DHT22;2166;49.926;8.608;2022-09-12T13:09:57;45.30;28.00
4306;DHT22;2166;49.926;8.608;2022-09-12T13:12:26;45.30;28.30
4306;DHT22;2166;49.926;8.608;2022-09-12T13:14:56;44.90;28.30
4306;DHT22;2166;49.926;8.608;2022-09-12T13:17:26;44.60;28.60
4306;DHT22;2166;49.926;8.608;2022-09-12T13:20:01;44.70;28.90
4306;DHT22;2166;49.926;8.608;2022-09-12T13:22:52;44.00;28.80
4306;DHT22;2166;49.926;8.608;2022-09-12T13:25:22;42.10;30.10
4306;DHT22;2166;49.926;8.608;2022-09-12T13:28:01;41.50;30.50
4306;DHT22;2166;49.926;8.608;2022-09-12T13:30:29;40.40;31.30
4306;DHT22;2166;49.926;8.608;2022-09-12T13:33:02;39.90;31.80
4306;DHT22;2166;49.926;8.608;2022-09-12T13:35:34;39.90;32.10
4306;DHT22;2166;49.926;8.608;2022-09-12T13:38:09;39.80;32.70
4306;DHT22;2166;49.926;8.608;2022-09-12T13:40:46;39.70;32.10
4306;DHT22;2166;49.926;8.608;2022-09-12T13:43:19;39.20;33.30
4306;DHT22;2166;49.926;8.608;2022-09-12T13:45:49;39.00;33.50
4306;DHT22;2166;49.926;8.608;2022-09-12T13:48:20;38.40;33.30
4306;DHT22;2166;49.926;8.608;2022-09-12T13:50:50;37.50;34.00
4306;DHT22;2166;49.926;8.608;2022-09-12T13:53:21;36.80;34.90
4306;DHT22;2166;49.926;8.608;2022-09-12T13:55:50;37.20;34.80
4306;DHT22;2166;49.926;8.608;2022-09-12T13:58:20;37.50;33.90
4306;DHT22;2166;49.926;8.608;2022-09-12T14:01:02;37.90;34.10
4306;DHT22;2166;49.926;8.608;2022-09-12T14:03:31;37.90;34.10
4306;DHT22;2166;49.926;8.608;2022-09-12T14:06:22;37.30;34.80
4306;DHT22;2166;49.926;8.608;2022-09-12T14:08:52;37.10;34.80
4306;DHT22;2166;49.926;8.608;2022-09-12T14:11:22;36.90;35.50
4306;DHT22;2166;49.926;8.608;2022-09-12T14:13:51;36.60;35.70
4306;DHT22;2166;49.926;8.608;2022-09-12T14:16:22;35.80;36.10
4306;DHT22;2166;49.926;8.608;2022-09-12T14:18:54;35.70;36.90
4306;DHT22;2166;49.926;8.608;2022-09-12T14:21:27;35.70;36.40
4306;DHT22;2166;49.926;8.608;2022-09-12T14:23:58;35.70;36.80
4306;DHT22;2166;49.926;8.608;2022-09-12T14:26:26;35.80;36.00
4306;DHT22;2166;49.926;8.608;2022-09-12T14:28:57;35.80;36.80
4306;DHT22;2166;49.926;8.608;2022-09-12T14:31:27;35.90;36.60
4306;DHT22;2166;49.926;8.608;2022-09-12T14:34:07;36.10;36.70
4306;DHT22;2166;49.926;8.608;2022-09-12T14:36:35;36.50;35.80
4306;DHT22;2166;49.926;8.608;2022-09-12T14:39:05;36.40;35.10
4306;DHT22;2166;49.926;8.608;2022-09-12T14:41:34;36.00;36.00
4306;DHT22;2166;49.926;8.608;2022-09-12T14:44:05;35.90;36.00
4306;DHT22;2166;49.926;8.608;2022-09-12T14:46:34;36.10;35.30
4306;DHT22;2166;49.926;8.608;2022-09-12T14:49:05;36.70;35.00
4306;DHT22;2166;49.926;8.608;2022-09-12T14:51:35;37.20;34.60
4306;DHT22;2166;49.926;8.608;2022-09-12T14:54:05;37.20;34.10
4306;DHT22;2166;49.926;8.608;2022-09-12T14:56:37;36.70;34.90
4306;DHT22;2166;49.926;8.608;2022-09-12T15:04:38;36.30;35.80
4306;DHT22;2166;49.926;8.608;2022-09-12T15:07:12;36.50;35.40
4306;DHT22;2166;49.926;8.608;2022-09-12T15:09:42;36.50;34.90
4306;DHT22;2166;49.926;8.608;2022-09-12T15:12:13;36.40;35.00
4306;DHT22;2166;49.926;8.608;2022-09-12T15:14:40;36.40;35.40
4306;DHT22;2166;49.926;8.608;2022-09-12T15:17:08;36.40;35.00
4306;DHT22;2166;49.926;8.608;2022-09-12T15:19:36;36.40;35.60
4306;DHT22;2166;49.926;8.608;2022-09-12T15:22:04;36.40;36.00
4306;DHT22;2166;49.926;8.608;2022-09-12T15:24:32;36.20;35.60
4306;DHT22;2166;49.926;8.608;2022-09-12T15:27:04;35.80;36.10
4306;DHT22;2166;49.926;8.608;2022-09-12T15:29:32;35.70;36.50
4306;DHT22;2166;49.926;8.608;2022-09-12T15:32:01;35.80;36.50
4306;DHT22;2166;49.926;8.608;2022-09-12T15:34:29;36.20;35.80
4306;DHT22;2166;49.926;8.608;2022-09-12T15:36:57;36.60;35.60
4306;DHT22;2166;49.926;8.608;2022-09-12T15:39:25;36.40;35.10
4306;DHT22;2166;49.926;8.608;2022-09-12T15:41:53;35.70;36.00
4306;DHT22;2166;49.926;8.608;2022-09-12T15:44:23;34.90;36.80
4306;DHT22;2166;49.926;8.608;2022-09-12T15:46:51;34.00;37.80
4306;DHT22;2166;49.926;8.608;2022-09-12T15:49:19;33.80;38.80
4306;DHT22;2166;49.926;8.608;2022-09-12T15:51:47;33.90;38.70
4306;DHT22;2166;49.926;8.608;2022-09-12T15:54:15;34.00;38.50
4306;DHT22;2166;49.926;8.608;2022-09-12T15:56:43;33.90;38.90
4306;DHT22;2166;49.926;8.608;2022-09-12T15:59:11;33.80;38.60
4306;DHT22;2166;49.926;8.608;2022-09-12T16:01:41;33.70;38.80
4306;DHT22;2166;49.926;8.608;2022-09-12T16:04:17;33.60;38.90
4306;DHT22;2166;49.926;8.608;2022-09-12T16:06:46;33.60;39.50
4306;DHT22;2166;49.926;8.608;2022-09-12T16:09:14;33.80;38.90
4306;DHT22;2166;49.926;8.608;2022-09-12T16:11:43;33.70;38.80
4306;DHT22;2166;49.926;8.608;2022-09-12T16:14:12;33.40;39.60
4306;DHT22;2166;49.926;8.608;2022-09-12T16:16:42;33.10;39.90
4306;DHT22;2166;49.926;8.608;2022-09-12T16:19:10;33.00;39.60
4306;DHT22;2166;49.926;8.608;2022-09-12T16:21:39;32.80;40.50
4306;DHT22;2166;49.926;8.608;2022-09-12T16:24:06;32.80;40.20
4306;DHT22;2166;49.926;8.608;2022-09-12T16:26:35;32.50;40.60
4306;DHT22;2166;49.926;8.608;2022-09-12T16:29:03;32.40;40.90
4306;DHT22;2166;49.926;8.608;2022-09-12T16:31:31;32.50;41.30
4306;DHT22;2166;49.926;8.608;2022-09-12T16:34:00;32.20;40.80
4306;DHT22;2166;49.926;8.608;2022-09-12T16:36:28;31.90;41.60
4306;DHT22;2166;49.926;8.608;2022-09-12T16:38:56;31.80;42.20
4306;DHT22;2166;49.926;8.608;2022-09-12T16:41:25;31.60;42.00
4306;DHT22;2166;49.926;8.608;2022-09-12T16:43:53;31.30;41.90
4306;DHT22;2166;49.926;8.608;2022-09-12T16:46:21;30.90;42.60